Time;durP1;ratioP1;P1;durP2;ratioP2;P2;SDS_P1;SDS_P2;PMS_P1;PMS_P2;Temp;Humidity;BMP_temperature;BMP_pressure;BME280_temperature;BME280_humidity;BME280_pressure;Samples;Min_cycle;Max_cycle;Signal;HPM_P1;HPM_P2
2021/11/12 00:13:40;;;;;;;20.87;17.23;;;;;;;;;;5033870;28;20179;-58
2021/11/12 00:16:06;;;;;;;17.10;15.30;;;;;;;;;;5033411;28;20120;-58
2021/11/12 00:18:33;;;;;;;17.73;15.83;;;;;;;;;;5033320;28;20480;-58
2021/11/12 00:21:00;;;;;;;19.30;17.27;;;;;;;;;;5033868;28;20025;-58
2021/11/12 00:23:27;;;;;;;20.97;16.67;;;;;;;;;;5033577;28;20430;-58
2021/11/12 00:25:53;;;;;;;22.07;18.70;;;;;;;;;;5033462;28;20160;-58
2021/11/12 00:28:21;;;;;;;20.60;18.53;;;;;;;;;;5031795;28;20040;-58
2021/11/12 00:35:57;;;;;;;19.97;17.53;;;;;;;;;;5033123;28;20044;-57
2021/11/12 00:38:27;;;;;;;20.67;17.47;;;;;;;;;;5032568;28;20468;-58
2021/11/12 00:41:12;;;;;;;18.75;16.83;;;;;;;;;;5033128;28;20034;-58
2021/11/12 00:43:50;;;;;;;17.07;14.90;;;;;;;;;;5033311;28;20080;-58
2021/11/12 00:49:24;;;;;;;17.40;15.20;;;;;;;;;;5010850;28;20030;-58
2021/11/12 00:51:52;;;;;;;20.13;16.53;;;;;;;;;;5010717;28;20030;-58
2021/11/12 00:54:19;;;;;;;15.97;14.37;;;;;;;;;;5021872;28;20041;-58
2021/11/12 00:56:47;;;;;;;17.30;15.53;;;;;;;;;;5032322;28;20041;-57
2021/11/12 00:59:13;;;;;;;14.50;13.00;;;;;;;;;;5033027;28;20028;-57
2021/11/12 01:01:40;;;;;;;19.17;16.90;;;;;;;;;;5032794;28;20108;-57
2021/11/12 01:04:07;;;;;;;16.30;13.83;;;;;;;;;;5048594;28;20040;-57
2021/11/12 01:06:35;;;;;;;17.60;14.53;;;;;;;;;;5051992;28;20429;-58
2021/11/12 01:09:01;;;;;;;18.30;16.43;;;;;;;;;;5052723;28;20025;-58
2021/11/12 01:11:27;;;;;;;19.27;17.13;;;;;;;;;;5052715;28;20055;-57
2021/11/12 01:13:54;;;;;;;17.47;15.77;;;;;;;;;;5052388;28;20029;-57
2021/11/12 01:16:20;;;;;;;21.30;16.77;;;;;;;;;;5051670;28;20067;-56
2021/11/12 01:18:46;;;;;;;19.60;17.30;;;;;;;;;;5052651;28;20033;-57
2021/11/12 01:21:13;;;;;;;18.53;16.47;;;;;;;;;;5052580;28;20094;-58
2021/11/12 01:23:42;;;;;;;18.00;16.00;;;;;;;;;;5052114;28;20040;-58
2021/11/12 01:26:09;;;;;;;16.80;15.07;;;;;;;;;;5052087;28;20606;-58
2021/11/12 01:28:35;;;;;;;19.07;16.60;;;;;;;;;;5052116;28;20159;-58
2021/11/12 01:31:01;;;;;;;28.70;18.07;;;;;;;;;;5052171;28;20465;-58
2021/11/12 01:33:28;;;;;;;15.63;14.10;;;;;;;;;;5052237;28;20063;-57
2021/11/12 01:35:57;;;;;;;27.63;16.93;;;;;;;;;;5052431;28;20036;-57
2021/11/12 01:38:26;;;;;;;16.50;14.07;;;;;;;;;;5051442;28;20032;-58
2021/11/12 01:40:52;;;;;;;19.37;15.40;;;;;;;;;;5051440;28;20033;-57
2021/11/12 01:43:21;;;;;;;18.20;16.30;;;;;;;;;;5051955;28;20049;-57
2021/11/12 01:54:09;;;;;;;17.30;15.63;;;;;;;;;;5051532;28;20582;-58
2021/11/12 02:01:34;;;;;;;22.73;13.90;;;;;;;;;;5051963;28;20033;-57
2021/11/12 02:04:00;;;;;;;22.03;15.70;;;;;;;;;;5036545;28;20040;-57
2021/11/12 02:06:27;;;;;;;15.77;13.87;;;;;;;;;;5031161;28;20033;-57
2021/11/12 02:08:53;;;;;;;15.90;14.27;;;;;;;;;;5032007;28;20037;-57
2021/11/12 02:11:20;;;;;;;15.00;13.47;;;;;;;;;;5032107;28;20057;-57
2021/11/12 02:13:48;;;;;;;15.93;14.23;;;;;;;;;;5031691;28;20484;-57
2021/11/12 02:16:19;;;;;;;16.33;14.00;;;;;;;;;;5031452;28;20375;-58
2021/11/12 02:18:46;;;;;;;15.27;13.67;;;;;;;;;;5031912;28;20026;-58
2021/11/12 02:21:26;;;;;;;16.27;14.50;;;;;;;;;;5031981;28;20033;-58
2021/11/12 02:26:22;;;;;;;16.47;14.57;;;;;;;;;;5031388;28;20041;-57
2021/11/12 02:28:53;;;;;;;17.17;14.03;;;;;;;;;;5031886;28;20083;-57
2021/11/12 02:31:19;;;;;;;14.65;13.25;;;;;;;;;;5031727;28;20033;-57
2021/11/12 02:33:45;;;;;;;16.63;13.93;;;;;;;;;;5031700;28;20048;-57
2021/11/12 02:36:15;;;;;;;14.57;13.10;;;;;;;;;;5031424;28;20033;-58
2021/11/12 02:38:47;;;;;;;13.77;12.38;;;;;;;;;;5031804;28;20021;-56
2021/11/12 02:41:13;;;;;;;15.43;13.87;;;;;;;;;;5031909;28;20053;-57
2021/11/12 02:43:40;;;;;;;18.07;14.97;;;;;;;;;;5031563;28;20029;-57
2021/11/12 02:46:08;;;;;;;13.57;12.27;;;;;;;;;;5031327;28;20029;-58
2021/11/12 02:48:40;;;;;;;15.00;13.50;;;;;;;;;;5031642;28;20068;-58
2021/11/12 02:51:08;;;;;;;16.70;14.43;;;;;;;;;;5032203;28;20080;-58
2021/11/12 02:53:34;;;;;;;13.63;12.23;;;;;;;;;;5035070;28;20033;-57
2021/11/12 02:56:04;;;;;;;14.03;12.57;;;;;;;;;;5035198;28;20026;-58
2021/11/12 02:58:31;;;;;;;13.77;12.50;;;;;;;;;;5034330;28;20430;-57
2021/11/12 03:00:57;;;;;;;14.83;12.90;;;;;;;;;;5035389;28;20084;-57
2021/11/12 03:03:23;;;;;;;14.87;12.93;;;;;;;;;;5045257;28;20025;-57
2021/11/12 03:05:49;;;;;;;15.47;13.33;;;;;;;;;;5055099;28;20025;-57
2021/11/12 03:08:15;;;;;;;15.60;13.20;;;;;;;;;;5054449;28;20107;-57
2021/11/12 03:10:42;;;;;;;15.57;14.00;;;;;;;;;;5054668;28;20109;-57
2021/11/12 03:13:08;;;;;;;13.93;12.53;;;;;;;;;;5054557;28;20037;-56
2021/11/12 03:15:34;;;;;;;18.30;16.00;;;;;;;;;;5054671;28;20494;-57
2021/11/12 03:18:00;;;;;;;14.77;13.27;;;;;;;;;;5054171;28;20025;-57
2021/11/12 03:20:29;;;;;;;17.80;14.70;;;;;;;;;;5054757;28;20048;-57
2021/11/12 03:22:59;;;;;;;16.37;14.63;;;;;;;;;;5054676;28;20033;-58
2021/11/12 03:25:37;;;;;;;14.43;12.90;;;;;;;;;;5054514;28;20044;-58
2021/11/12 03:28:12;;;;;;;15.07;13.40;;;;;;;;;;5054096;28;20041;-57
2021/11/12 03:47:11;;;;;;;13.67;12.30;;;;;;;;;;5053894;28;20040;-58
2021/11/12 04:19:42;;;;;;;13.93;12.43;;;;;;;;;;5053954;28;20087;-58
2021/11/12 05:25:31;;;;;;;16.97;14.50;;;;;;;;;;5049289;28;20103;-57
2021/11/12 05:43:35;;;;;;;15.23;13.90;;;;;;;;;;5052134;28;20051;-57
2021/11/12 05:50:18;;;;;;;14.83;12.90;;;;;;;;;;5052504;28;20071;-58
2021/11/12 05:55:28;;;;;;;23.63;14.60;;;;;;;;;;5051939;28;20116;-55
2021/11/12 05:57:56;;;;;;;16.17;14.43;;;;;;;;;;5051327;28;20433;-57
2021/11/12 06:00:22;;;;;;;14.57;13.27;;;;;;;;;;5050676;28;20419;-57
2021/11/12 06:02:48;;;;;;;17.00;15.30;;;;;;;;;;5052224;28;20071;-57
2021/11/12 06:05:17;;;;;;;24.47;15.40;;;;;;;;;;5051822;28;20029;-57
2021/11/12 06:07:43;;;;;;;14.87;13.27;;;;;;;;;;5048849;28;20025;-58
2021/11/12 06:10:09;;;;;;;17.57;15.47;;;;;;;;;;5050394;28;20025;-57
2021/11/12 06:12:35;;;;;;;21.67;14.93;;;;;;;;;;5051471;28;20033;-58
2021/11/12 06:15:01;;;;;;;38.37;16.57;;;;;;;;;;5051767;28;20029;-57
2021/11/12 06:17:27;;;;;;;15.43;13.90;;;;;;;;;;5050799;28;20036;-58
2021/11/12 06:19:53;;;;;;;15.13;13.60;;;;;;;;;;5052044;28;20523;-57
2021/11/12 06:22:19;;;;;;;13.10;11.83;;;;;;;;;;5051597;28;20100;-57
2021/11/12 06:24:46;;;;;;;20.23;16.10;;;;;;;;;;5051529;28;20112;-58
2021/11/12 06:27:12;;;;;;;17.90;15.50;;;;;;;;;;5053043;28;20040;-57
2021/11/12 06:29:39;;;;;;;18.97;14.13;;;;;;;;;;5055788;28;20219;-58
2021/11/12 06:32:05;;;;;;;16.90;15.10;;;;;;;;;;5042902;28;20024;-58
2021/11/12 06:34:31;;;;;;;27.50;15.20;;;;;;;;;;5035284;28;20487;-58
2021/11/12 06:36:57;;;;;;;24.07;15.13;;;;;;;;;;5040261;28;20039;-58
2021/11/12 06:39:23;;;;;;;17.33;15.53;;;;;;;;;;5055288;28;20033;-57
2021/11/12 06:49:57;;;;;;;23.57;21.17;;;;;;;;;;5021433;28;20378;-58
2021/11/12 06:52:24;;;;;;;33.55;15.40;;;;;;;;;;5055427;28;20104;-58
2021/11/12 06:54:50;;;;;;;21.27;18.43;;;;;;;;;;5055133;28;20478;-58
2021/11/12 06:57:17;;;;;;;20.93;17.73;;;;;;;;;;5053327;28;20036;-58
2021/11/12 06:59:44;;;;;;;22.50;18.10;;;;;;;;;;5044264;28;20021;-58
2021/11/12 07:02:11;;;;;;;15.37;13.97;;;;;;;;;;5038328;28;20494;-57
2021/11/12 07:04:37;;;;;;;17.33;15.43;;;;;;;;;;5055245;28;20056;-58
2021/11/12 07:07:05;;;;;;;18.63;16.03;;;;;;;;;;5054087;28;20071;-59
2021/11/12 07:09:34;;;;;;;16.50;14.80;;;;;;;;;;5054846;28;20028;-58
2021/11/12 07:12:00;;;;;;;22.73;15.47;;;;;;;;;;5053530;28;20439;-58
2021/11/12 07:14:26;;;;;;;18.07;16.17;;;;;;;;;;5053881;28;20135;-59
2021/11/12 07:16:52;;;;;;;23.47;16.03;;;;;;;;;;5052331;28;20033;-58
2021/11/12 07:19:18;;;;;;;31.23;18.83;;;;;;;;;;5053869;28;20520;-58
2021/11/12 07:21:44;;;;;;;29.63;21.33;;;;;;;;;;5053665;28;20025;-59
2021/11/12 07:24:10;;;;;;;28.30;18.97;;;;;;;;;;5053411;28;20075;-59
2021/11/12 07:26:36;;;;;;;20.70;18.13;;;;;;;;;;5053014;28;20103;-58
2021/11/12 07:29:02;;;;;;;59.67;19.37;;;;;;;;;;5054350;28;20021;-58
2021/11/12 07:31:28;;;;;;;44.53;26.00;;;;;;;;;;5054108;28;20036;-59
2021/11/12 07:33:58;;;;;;;32.37;19.00;;;;;;;;;;5054357;28;20041;-58
2021/11/12 07:36:25;;;;;;;29.60;21.93;;;;;;;;;;5054084;28;20037;-59
2021/11/12 07:38:55;;;;;;;41.93;26.67;;;;;;;;;;5053643;28;20267;-59
2021/11/12 07:41:27;;;;;;;32.88;19.10;;;;;;;;;;5054549;28;20453;-59
2021/11/12 07:48:59;;;;;;;18.93;16.53;;;;;;;;;;5054477;28;20052;-58
2021/11/12 07:51:25;;;;;;;30.77;17.80;;;;;;;;;;5054221;28;20021;-58
2021/11/12 07:53:51;;;;;;;38.50;19.33;;;;;;;;;;5053753;28;20032;-57
2021/11/12 07:56:17;;;;;;;24.00;18.07;;;;;;;;;;5053383;28;20036;-59
2021/11/12 07:58:43;;;;;;;36.57;19.20;;;;;;;;;;5052804;28;20078;-59
2021/11/12 08:01:09;;;;;;;26.63;19.13;;;;;;;;;;5054092;28;20029;-58
2021/11/12 08:03:35;;;;;;;33.80;19.53;;;;;;;;;;5054066;28;20029;-59
2021/11/12 08:06:04;;;;;;;37.20;18.10;;;;;;;;;;5053635;28;20079;-58
2021/11/12 08:08:34;;;;;;;23.13;19.43;;;;;;;;;;5053268;28;20095;-58
2021/11/12 08:11:04;;;;;;;29.67;17.60;;;;;;;;;;5053593;28;20082;-59
2021/11/12 08:16:46;;;;;;;20.17;18.30;;;;;;;;;;5029948;28;20084;-59
2021/11/12 08:19:17;;;;;;;19.43;17.57;;;;;;;;;;5044898;28;20044;-59
2021/11/12 08:32:26;;;;;;;25.67;17.53;;;;;;;;;;5053274;28;20025;-59
2021/11/12 08:37:07;;;;;;;20.20;17.80;;;;;;;;;;5052852;28;20433;-58
2021/11/12 08:40:02;;;;;;;46.57;19.83;;;;;;;;;;5053567;28;20363;-59
2021/11/12 08:42:33;;;;;;;21.23;18.43;;;;;;;;;;5053153;28;20047;-59
2021/11/12 08:45:07;;;;;;;51.03;22.77;;;;;;;;;;5053367;28;20041;-58
2021/11/12 08:47:41;;;;;;;22.77;20.40;;;;;;;;;;5052429;28;20025;-58
2021/11/12 08:50:14;;;;;;;28.57;18.23;;;;;;;;;;5052781;28;20525;-58
2021/11/12 08:52:40;;;;;;;31.10;20.70;;;;;;;;;;5052842;28;20037;-60
2021/11/12 08:55:08;;;;;;;21.50;18.60;;;;;;;;;;5053014;28;20048;-60
2021/11/12 08:57:34;;;;;;;21.47;19.17;;;;;;;;;;5051976;28;20047;-60
2021/11/12 09:00:02;;;;;;;29.03;18.67;;;;;;;;;;5053142;28;20360;-60
2021/11/12 09:02:28;;;;;;;20.30;17.70;;;;;;;;;;5052397;28;20044;-60
2021/11/12 09:04:54;;;;;;;22.07;19.83;;;;;;;;;;5052845;28;20085;-60
2021/11/12 09:07:21;;;;;;;36.73;20.73;;;;;;;;;;5051861;28;20411;-59
2021/11/12 09:09:51;;;;;;;36.53;18.47;;;;;;;;;;5052553;28;20036;-59
2021/11/12 09:12:21;;;;;;;32.20;21.10;;;;;;;;;;5052815;28;20479;-60
2021/11/12 09:14:48;;;;;;;31.10;23.07;;;;;;;;;;5052688;28;20047;-60
2021/11/12 09:17:16;;;;;;;48.17;22.67;;;;;;;;;;5051838;28;20090;-60
2021/11/12 09:19:49;;;;;;;22.13;19.80;;;;;;;;;;5052285;28;20057;-60
2021/11/12 09:22:17;;;;;;;31.73;20.93;;;;;;;;;;5052521;28;20033;-60
2021/11/12 09:24:44;;;;;;;25.10;20.50;;;;;;;;;;5051703;28;20025;-60
2021/11/12 09:27:10;;;;;;;38.33;23.07;;;;;;;;;;5051780;28;20025;-60
2021/11/12 09:29:36;;;;;;;23.35;19.67;;;;;;;;;;5052477;28;20513;-60
2021/11/12 09:32:04;;;;;;;32.50;22.15;;;;;;;;;;5052431;28;20485;-60
2021/11/12 09:34:34;;;;;;;32.40;20.10;;;;;;;;;;5051796;28;20048;-60
2021/11/12 09:37:00;;;;;;;23.30;20.88;;;;;;;;;;5051307;28;20025;-60
2021/11/12 09:39:26;;;;;;;26.17;21.87;;;;;;;;;;5052215;28;20494;-60
2021/11/12 09:41:52;;;;;;;32.92;22.40;;;;;;;;;;5052402;28;20108;-59
2021/11/12 09:44:19;;;;;;;26.50;21.13;;;;;;;;;;5051984;28;20037;-59
2021/11/12 09:46:45;;;;;;;27.55;22.98;;;;;;;;;;5051383;28;20414;-60
2021/11/12 09:49:11;;;;;;;24.15;21.50;;;;;;;;;;5052085;28;20033;-59
2021/11/12 09:51:37;;;;;;;30.20;22.75;;;;;;;;;;5052057;28;20032;-60
2021/11/12 09:54:03;;;;;;;38.30;24.15;;;;;;;;;;5051591;28;20041;-60
2021/11/12 09:56:29;;;;;;;27.95;23.10;;;;;;;;;;5051454;28;20487;-60
2021/11/12 09:58:55;;;;;;;29.05;23.27;;;;;;;;;;5052105;28;20497;-59
2021/11/12 10:01:27;;;;;;;35.03;23.60;;;;;;;;;;5050631;28;20029;-60
2021/11/12 10:03:54;;;;;;;29.40;22.13;;;;;;;;;;5051756;28;20044;-60
2021/11/12 10:06:21;;;;;;;38.05;22.58;;;;;;;;;;5051414;28;20155;-60
2021/11/12 10:08:48;;;;;;;31.55;21.23;;;;;;;;;;5051762;28;20091;-56
2021/11/12 10:11:20;;;;;;;24.00;21.42;;;;;;;;;;5052012;28;20061;-58
2021/11/12 10:13:48;;;;;;;23.45;20.63;;;;;;;;;;5051735;28;20064;-58
2021/11/12 10:19:02;;;;;;;23.10;20.60;;;;;;;;;;5051375;28;20118;-58
2021/11/12 10:21:30;;;;;;;23.42;19.27;;;;;;;;;;5050246;28;20033;-58
2021/11/12 10:24:04;;;;;;;25.00;21.05;;;;;;;;;;5049990;28;20497;-58
2021/11/12 10:26:31;;;;;;;25.17;20.63;;;;;;;;;;5050240;28;20074;-58
2021/11/12 10:29:01;;;;;;;32.17;23.55;;;;;;;;;;5051025;28;20029;-58
2021/11/12 10:31:27;;;;;;;25.20;22.27;;;;;;;;;;5051552;28;20031;-58
2021/11/12 10:33:53;;;;;;;45.35;23.60;;;;;;;;;;5051072;28;20033;-58
2021/11/12 10:36:21;;;;;;;41.47;24.58;;;;;;;;;;5051596;28;20086;-58
2021/11/12 10:38:51;;;;;;;32.05;24.52;;;;;;;;;;5051284;28;20487;-58
2021/11/12 10:41:22;;;;;;;25.60;21.98;;;;;;;;;;5051892;28;20040;-58
2021/11/12 10:43:48;;;;;;;;;;;;;;;;;;5052213;28;20040;-58
2021/11/12 10:46:14;;;;;;;24.60;20.48;;;;;;;;;;5051160;28;19905;-58
2021/11/12 10:48:40;;;;;;;34.17;23.42;;;;;;;;;;5050561;28;20309;-59
2021/11/12 10:51:17;;;;;;;27.90;22.85;;;;;;;;;;5050125;28;20036;-57
2021/11/12 10:53:51;;;;;;;32.38;24.15;;;;;;;;;;5051512;28;20041;-56
2021/11/12 10:56:21;;;;;;;27.38;23.70;;;;;;;;;;5051589;28;20068;-54
2021/11/12 10:58:57;;;;;;;36.15;24.42;;;;;;;;;;5049099;28;20036;-58
2021/11/12 11:01:33;;;;;;;27.20;22.08;;;;;;;;;;5054968;28;20039;-57
2021/11/12 11:04:18;;;;;;;30.88;23.48;;;;;;;;;;5051398;28;20025;-55
2021/11/12 11:06:44;;;;;;;29.83;23.77;;;;;;;;;;5050535;28;20029;-57
2021/11/12 11:09:10;;;;;;;33.90;23.48;;;;;;;;;;5051218;28;20538;-56
2021/11/12 11:11:41;;;;;;;27.85;24.60;;;;;;;;;;5051612;28;20067;-57
2021/11/12 11:14:26;;;;;;;26.83;21.90;;;;;;;;;;5054624;28;20374;-57
2021/11/12 11:16:52;;;;;;;26.05;22.65;;;;;;;;;;5054004;28;20028;-57
2021/11/12 11:19:38;;;;;;;28.38;22.35;;;;;;;;;;5054253;28;20366;-56
2021/11/12 11:22:10;;;;;;;28.85;23.77;;;;;;;;;;5053438;28;20485;-57
2021/11/12 11:24:37;;;;;;;30.77;24.30;;;;;;;;;;5054891;28;20094;-57
2021/11/12 11:27:04;;;;;;;30.15;21.95;;;;;;;;;;5054119;28;20082;-57
2021/11/12 11:29:30;;;;;;;26.20;21.50;;;;;;;;;;5054458;28;20101;-57
2021/11/12 11:31:58;;;;;;;31.77;24.20;;;;;;;;;;5054595;28;20564;-57
2021/11/12 11:34:24;;;;;;;31.58;24.27;;;;;;;;;;5054397;28;20496;-57
2021/11/12 11:36:50;;;;;;;33.92;23.42;;;;;;;;;;5053709;28;20028;-57
2021/11/12 11:39:18;;;;;;;35.58;23.88;;;;;;;;;;5064923;28;20032;-57
2021/11/12 11:41:45;;;;;;;26.10;21.88;;;;;;;;;;5066563;28;20013;-56
2021/11/12 11:44:11;;;;;;;29.38;23.65;;;;;;;;;;5054401;28;20033;-57
2021/11/12 11:46:43;;;;;;;30.92;24.27;;;;;;;;;;5053332;28;20100;-56
2021/11/12 11:49:11;;;;;;;27.05;23.10;;;;;;;;;;5041838;28;20475;-57
2021/11/12 11:51:47;;;;;;;31.20;25.40;;;;;;;;;;5054035;28;20374;-57
2021/11/12 11:54:13;;;;;;;26.45;22.63;;;;;;;;;;5054237;28;20042;-57
2021/11/12 11:56:44;;;;;;;30.02;23.42;;;;;;;;;;5053155;28;20100;-57
2021/11/12 11:59:10;;;;;;;25.60;22.25;;;;;;;;;;5054447;28;20025;-55
2021/11/12 12:01:42;;;;;;;26.90;21.40;;;;;;;;;;5053598;28;20051;-57
2021/11/12 12:04:08;;;;;;;30.48;24.42;;;;;;;;;;5053773;28;20032;-56
2021/11/12 12:06:38;;;;;;;28.98;22.52;;;;;;;;;;5052684;28;20111;-56
2021/11/12 12:09:09;;;;;;;26.40;21.90;;;;;;;;;;5053874;28;20024;-58
2021/11/12 12:11:43;;;;;;;28.63;25.10;;;;;;;;;;5058705;28;20474;-57
2021/11/12 12:14:21;;;;;;;32.05;23.80;;;;;;;;;;5059832;28;20044;-57
2021/11/12 12:16:59;;;;;;;37.47;23.75;;;;;;;;;;5052253;28;20040;-58
2021/11/12 12:19:46;;;;;;;27.85;22.92;;;;;;;;;;5054115;28;20024;-57
2021/11/12 12:30:52;;;;;;;29.70;23.75;;;;;;;;;;5053251;28;20037;-55
2021/11/12 13:22:38;;;;;;;36.63;28.27;;;;;;;;;;5052400;28;20061;-57
2021/11/12 13:25:05;;;;;;;38.80;29.65;;;;;;;;;;5055124;28;20032;-57
2021/11/12 13:27:32;;;;;;;38.35;29.85;;;;;;;;;;5056415;28;20064;-58
2021/11/12 13:29:58;;;;;;;38.75;29.60;;;;;;;;;;5050373;28;20286;-57
2021/11/12 13:32:24;;;;;;;35.33;29.38;;;;;;;;;;5051527;28;20048;-57
2021/11/12 13:34:50;;;;;;;35.08;29.33;;;;;;;;;;5051653;28;20486;-57
2021/11/12 13:37:17;;;;;;;34.20;25.95;;;;;;;;;;5049797;28;20025;-55
2021/11/12 13:39:43;;;;;;;33.28;27.88;;;;;;;;;;5066817;28;20029;-55
2021/11/12 13:42:10;;;;;;;35.17;28.17;;;;;;;;;;5050749;28;20028;-55
2021/11/12 13:44:38;;;;;;;32.47;26.55;;;;;;;;;;5053527;28;20032;-57
2021/11/12 13:47:08;;;;;;;30.73;26.65;;;;;;;;;;5061611;28;20489;-57
2021/11/12 13:49:48;;;;;;;39.92;28.13;;;;;;;;;;5062674;28;20029;-55
2021/11/12 13:52:20;;;;;;;34.83;29.52;;;;;;;;;;5065109;28;20028;-56
2021/11/12 13:54:48;;;;;;;38.42;29.58;;;;;;;;;;5058987;28;20043;-54
2021/11/12 13:57:25;;;;;;;33.80;28.88;;;;;;;;;;5050869;28;20028;-54
2021/11/12 13:59:53;;;;;;;35.67;29.50;;;;;;;;;;5052368;28;20092;-56
2021/11/12 14:02:19;;;;;;;34.47;28.63;;;;;;;;;;5051812;28;20451;-56
2021/11/12 14:04:45;;;;;;;34.10;29.65;;;;;;;;;;5051846;28;20029;-55
2021/11/12 14:07:29;;;;;;;41.38;28.98;;;;;;;;;;5050961;28;20056;-56
2021/11/12 14:10:06;;;;;;;37.33;29.83;;;;;;;;;;5059213;28;20028;-56
2021/11/12 14:12:32;;;;;;;33.17;26.05;;;;;;;;;;5061391;28;20036;-53
2021/11/12 14:15:06;;;;;;;31.67;27.80;;;;;;;;;;5056074;28;20057;-57
2021/11/12 14:17:34;;;;;;;38.55;30.95;;;;;;;;;;5044322;28;20060;-54
2021/11/12 14:20:20;;;;;;;34.45;28.92;;;;;;;;;;5059693;28;20022;-56
2021/11/12 14:22:54;;;;;;;36.33;27.00;;;;;;;;;;5067625;28;20029;-56
2021/11/12 14:25:35;;;;;;;36.45;31.08;;;;;;;;;;5065869;28;20044;-57
2021/11/12 14:28:02;;;;;;;;;;;;;;;;;;5050589;28;20025;-55
2021/11/12 14:33:16;;;;;;;43.47;30.40;;;;;;;;;;5068781;28;20048;-55
2021/11/12 14:38:19;;;;;;;44.28;29.83;;;;;;;;;;5055191;28;20056;-56
2021/11/12 14:43:44;;;;;;;41.15;29.83;;;;;;;;;;5059568;28;20119;-56
2021/11/12 14:46:12;;;;;;;39.97;32.35;;;;;;;;;;5059898;28;20075;-58
2021/11/12 14:54:25;;;;;;;32.70;28.20;;;;;;;;;;5052203;28;20048;-57
2021/11/12 14:56:51;;;;;;;35.85;28.30;;;;;;;;;;5054402;28;20029;-57
2021/11/12 14:59:18;;;;;;;36.75;28.35;;;;;;;;;;5067662;28;20383;-57
2021/11/12 15:01:45;;;;;;;34.92;28.00;;;;;;;;;;5062286;28;20060;-55
2021/11/12 15:04:11;;;;;;;36.58;29.63;;;;;;;;;;5071762;28;20051;-55
2021/11/12 15:06:37;;;;;;;40.13;29.67;;;;;;;;;;5063103;28;20017;-57
2021/11/12 15:09:16;;;;;;;35.78;26.45;;;;;;;;;;5058480;28;20095;-57
2021/11/12 15:11:43;;;;;;;38.95;28.25;;;;;;;;;;5066821;28;20457;-57
2021/11/12 15:14:13;;;;;;;42.95;27.00;;;;;;;;;;5055777;28;20043;-55
2021/11/12 15:16:40;;;;;;;42.60;28.58;;;;;;;;;;5066712;28;20017;-57
2021/11/12 15:19:10;;;;;;;39.70;27.08;;;;;;;;;;5055310;28;20447;-57
2021/11/12 15:21:41;;;;;;;33.08;23.90;;;;;;;;;;5060646;28;20094;-57
2021/11/12 15:24:14;;;;;;;26.95;20.63;;;;;;;;;;5061151;28;20040;-55
2021/11/12 15:27:07;;;;;;;28.23;21.70;;;;;;;;;;5068836;28;20051;-55
2021/11/12 15:30:05;;;;;;;24.77;20.27;;;;;;;;;;5060421;28;20036;-57
2021/11/12 15:32:31;;;;;;;32.10;22.50;;;;;;;;;;5039312;28;20116;-57
2021/11/12 15:35:05;;;;;;;29.08;22.77;;;;;;;;;;5053731;28;20044;-56
2021/11/12 15:40:26;;;;;;;31.95;24.20;;;;;;;;;;5054058;28;20071;-56
2021/11/12 15:43:12;;;;;;;28.17;21.77;;;;;;;;;;5054025;28;20020;-56
2021/11/12 15:46:07;;;;;;;26.80;19.73;;;;;;;;;;5053429;28;20387;-56
2021/11/12 15:48:27;;;;;;;32.30;19.85;;;;;;;;;;5051873;28;20044;-56
2021/11/12 15:51:21;;;;;;;27.55;21.33;;;;;;;;;;5053067;28;20437;-57
2021/11/12 15:56:49;;;;;;;41.50;21.23;;;;;;;;;;5060950;28;20059;-57
2021/11/12 16:02:36;;;;;;;39.80;20.83;;;;;;;;;;5061733;28;20082;-57
2021/11/12 16:05:14;;;;;;;24.55;19.75;;;;;;;;;;5048740;28;20037;-57
2021/11/12 16:13:22;;;;;;;42.65;19.92;;;;;;;;;;5064969;28;20038;-57
2021/11/12 16:18:56;;;;;;;47.85;21.13;;;;;;;;;;5048310;28;20031;-57
2021/11/12 16:26:45;;;;;;;61.70;21.40;;;;;;;;;;5044123;28;20040;-58
2021/11/12 16:29:35;;;;;;;36.92;19.55;;;;;;;;;;5071855;28;20044;-58
2021/11/12 16:32:02;;;;;;;43.00;19.88;;;;;;;;;;5067212;28;20040;-57
2021/11/12 16:34:30;;;;;;;56.45;18.92;;;;;;;;;;5054301;28;20044;-55
2021/11/12 16:36:59;;;;;;;22.95;20.48;;;;;;;;;;5063266;28;20032;-57
2021/11/12 16:39:32;;;;;;;38.38;18.75;;;;;;;;;;5063345;28;20520;-57
2021/11/12 16:42:27;;;;;;;52.78;21.38;;;;;;;;;;5070872;28;20037;-55
2021/11/12 16:49:49;;;;;;;32.05;20.55;;;;;;;;;;5052684;28;20458;-58
2021/11/12 16:55:12;;;;;;;35.70;19.20;;;;;;;;;;5057451;28;20479;-56
2021/11/12 17:02:50;;;;;;;38.92;22.35;;;;;;;;;;5055259;28;20046;-57
2021/11/12 17:10:44;;;;;;;43.67;19.67;;;;;;;;;;5067552;28;20042;-58
2021/11/12 17:13:30;;;;;;;66.53;19.50;;;;;;;;;;5057227;28;20029;-57
2021/11/12 17:45:50;;;;;;;42.60;19.50;;;;;;;;;;5052585;28;20431;-58
2021/11/12 17:48:30;;;;;;;49.63;19.83;;;;;;;;;;5055235;28;20044;-58
2021/11/12 18:07:29;;;;;;;29.42;18.58;;;;;;;;;;5061004;28;20046;-54
2021/11/12 18:15:35;;;;;;;28.00;19.05;;;;;;;;;;5060758;28;20470;-58
2021/11/12 21:48:34;;;;;;;43.50;18.83;;;;;;;;;;5031487;28;20111;-58
2021/11/12 21:51:01;;;;;;;19.13;17.17;;;;;;;;;;5032424;28;20056;-57
2021/11/12 21:53:28;;;;;;;41.67;19.33;;;;;;;;;;5032155;28;20095;-58
2021/11/12 21:55:55;;;;;;;35.83;19.73;;;;;;;;;;5051161;28;20492;-58
2021/11/12 21:58:22;;;;;;;31.00;18.70;;;;;;;;;;5049589;28;20486;-58
2021/11/12 22:00:48;;;;;;;33.37;18.13;;;;;;;;;;5051239;28;20029;-58
2021/11/12 22:03:15;;;;;;;25.90;19.40;;;;;;;;;;5051737;28;20335;-55
2021/11/12 22:05:41;;;;;;;27.10;18.07;;;;;;;;;;5051829;28;20239;-56
2021/11/12 22:08:10;;;;;;;23.37;17.40;;;;;;;;;;5051009;28;20029;-58
2021/11/12 22:10:36;;;;;;;20.33;17.63;;;;;;;;;;5052282;28;20051;-55
2021/11/12 22:13:03;;;;;;;77.53;20.53;;;;;;;;;;5051958;28;20131;-57
2021/11/12 22:15:29;;;;;;;40.83;17.17;;;;;;;;;;5051874;28;20043;-58
2021/11/12 22:17:55;;;;;;;21.40;15.97;;;;;;;;;;5051110;28;20090;-58
2021/11/12 22:20:21;;;;;;;30.80;17.83;;;;;;;;;;5051770;28;20029;-58
2021/11/12 22:22:48;;;;;;;56.87;18.83;;;;;;;;;;5051749;28;20203;-58
2021/11/12 22:25:14;;;;;;;53.13;22.03;;;;;;;;;;5051577;28;20033;-58
2021/11/12 22:27:40;;;;;;;41.37;18.47;;;;;;;;;;5051216;28;20044;-59
2021/11/12 22:30:07;;;;;;;29.53;16.37;;;;;;;;;;5051856;28;20125;-58
2021/11/12 22:32:33;;;;;;;57.17;20.23;;;;;;;;;;5051749;28;20025;-57
2021/11/12 22:34:59;;;;;;;38.33;19.13;;;;;;;;;;5051418;28;20041;-56
2021/11/12 22:37:25;;;;;;;25.40;16.30;;;;;;;;;;5051006;28;20041;-57
2021/11/12 22:39:51;;;;;;;23.20;18.33;;;;;;;;;;5051528;28;20111;-54
2021/11/12 22:42:17;;;;;;;34.53;18.07;;;;;;;;;;5051998;28;20076;-54
2021/11/12 22:44:44;;;;;;;29.03;16.93;;;;;;;;;;5052011;28;20057;-57
2021/11/12 22:47:11;;;;;;;29.43;17.97;;;;;;;;;;5050927;28;20371;-57
2021/11/12 22:49:37;;;;;;;26.60;18.47;;;;;;;;;;5051377;28;20017;-56
2021/11/12 22:52:03;;;;;;;23.60;16.80;;;;;;;;;;5051566;28;20025;-56
2021/11/12 22:54:29;;;;;;;19.17;17.07;;;;;;;;;;5051226;28;20506;-58
2021/11/12 22:56:55;;;;;;;43.87;18.90;;;;;;;;;;5050936;28;20132;-55
2021/11/12 22:59:21;;;;;;;27.23;17.57;;;;;;;;;;5051568;28;20120;-57
2021/11/12 23:01:47;;;;;;;28.90;18.77;;;;;;;;;;5051387;28;20021;-57
2021/11/12 23:04:13;;;;;;;19.37;16.83;;;;;;;;;;5051537;28;20040;-56
2021/11/12 23:06:41;;;;;;;20.30;18.17;;;;;;;;;;5050527;28;20032;-58
2021/11/12 23:09:07;;;;;;;45.30;19.92;;;;;;;;;;5053272;28;20031;-57
2021/11/12 23:11:33;;;;;;;41.47;18.77;;;;;;;;;;5055299;28;20028;-57
2021/11/12 23:13:59;;;;;;;40.37;20.07;;;;;;;;;;5055104;28;20037;-57
2021/11/12 23:16:25;;;;;;;43.13;20.77;;;;;;;;;;5054332;28;20024;-58
2021/11/12 23:18:52;;;;;;;47.47;19.53;;;;;;;;;;5054870;28;20473;-58
2021/11/12 23:21:18;;;;;;;44.30;20.57;;;;;;;;;;5054732;28;20028;-56
2021/11/12 23:23:48;;;;;;;19.10;17.07;;;;;;;;;;5054815;28;20037;-57
2021/11/12 23:26:14;;;;;;;84.57;18.30;;;;;;;;;;5054619;28;20033;-57
2021/11/12 23:28:40;;;;;;;60.17;18.37;;;;;;;;;;5054702;28;20379;-57
2021/11/12 23:31:06;;;;;;;45.57;18.37;;;;;;;;;;5054793;28;20040;-54
2021/11/12 23:33:32;;;;;;;58.67;17.90;;;;;;;;;;5054435;28;20029;-56
2021/11/12 23:35:58;;;;;;;52.50;17.20;;;;;;;;;;5053934;28;20238;-56
2021/11/12 23:38:24;;;;;;;38.07;18.63;;;;;;;;;;5053877;28;20025;-55
2021/11/12 23:40:50;;;;;;;71.03;18.13;;;;;;;;;;5054624;28;20033;-54
2021/11/12 23:43:16;;;;;;;73.83;19.37;;;;;;;;;;5054469;28;20094;-55
2021/11/12 23:45:42;;;;;;;96.17;21.17;;;;;;;;;;5054640;28;20040;-56
2021/11/12 23:48:08;;;;;;;50.03;18.00;;;;;;;;;;5053673;28;20021;-56
2021/11/12 23:50:34;;;;;;;42.03;16.87;;;;;;;;;;5054155;28;20059;-55
2021/11/12 23:53:00;;;;;;;63.97;19.70;;;;;;;;;;5054227;28;20406;-55
2021/11/12 23:55:26;;;;;;;51.27;16.17;;;;;;;;;;5054035;28;20090;-56
2021/11/12 23:57:52;;;;;;;57.93;18.87;;;;;;;;;;5053419;28;20025;-57
